createdAt,value
2018-11-25T00:00:11.811Z,12.10
2018-11-25T00:01:11.830Z,10.60
2018-11-25T00:02:11.788Z,10.80
2018-11-25T00:03:11.781Z,12.60
2018-11-25T00:04:11.766Z,16.60
2018-11-25T00:05:11.758Z,14.30
2018-11-25T00:06:11.786Z,20.50
2018-11-25T00:07:11.734Z,17.70
2018-11-25T00:08:11.726Z,15.20
2018-11-25T00:09:11.712Z,18.20
2018-11-25T00:10:11.700Z,17.30
2018-11-25T00:11:11.689Z,18.70
2018-11-25T00:12:11.715Z,16.80
2018-11-25T00:13:11.703Z,14.10
2018-11-25T00:14:11.657Z,18.60
2018-11-25T00:15:11.648Z,15.10
2018-11-25T00:16:11.636Z,13.80
2018-11-25T00:17:11.627Z,14.60
2018-11-25T00:18:11.613Z,15.20
2018-11-25T00:19:11.642Z,13.30
2018-11-25T00:20:11.596Z,13.40
2018-11-25T00:21:11.581Z,12.50
2018-11-25T00:22:11.571Z,13.10
2018-11-25T00:23:11.559Z,12.60
2018-11-25T00:24:11.550Z,12.40
2018-11-25T00:25:11.816Z,13.60
2018-11-25T00:26:11.530Z,14.80
2018-11-25T00:27:11.520Z,12.20
2018-11-25T00:28:11.507Z,13.00
2018-11-25T00:29:11.495Z,14.00
2018-11-25T00:30:11.484Z,9.60
2018-11-25T00:31:11.509Z,10.70
2018-11-25T00:32:11.464Z,9.90
2018-11-25T00:33:11.452Z,10.40
2018-11-25T00:34:11.441Z,7.70
2018-11-25T00:35:11.429Z,8.40
2018-11-25T00:36:11.459Z,9.70
2018-11-25T00:37:11.408Z,9.20
2018-11-25T00:38:11.397Z,9.90
2018-11-25T00:39:11.387Z,9.20
2018-11-25T00:40:11.376Z,9.30
2018-11-25T00:41:11.664Z,10.70
2018-11-25T00:42:11.391Z,9.60
2018-11-25T00:43:11.344Z,10.10
2018-11-25T00:44:11.331Z,10.50
2018-11-25T00:45:11.324Z,10.40
2018-11-25T00:46:11.310Z,9.00
2018-11-25T00:47:11.308Z,9.60
2018-11-25T00:48:11.331Z,9.90
2018-11-25T00:49:11.279Z,8.80
2018-11-25T00:50:11.270Z,8.70
2018-11-25T00:51:11.257Z,9.80
2018-11-25T00:52:11.246Z,9.20
2018-11-25T00:53:11.237Z,10.40
2018-11-25T00:54:11.258Z,11.60
2018-11-25T00:55:11.246Z,10.90
2018-11-25T00:56:11.203Z,11.90
2018-11-25T00:57:11.193Z,13.10
2018-11-25T00:58:11.181Z,14.60
2018-11-25T00:59:11.171Z,14.00
2018-11-25T01:00:11.200Z,13.10
2018-11-25T01:01:11.150Z,13.10
2018-11-25T01:02:11.144Z,14.10
2018-11-25T01:03:11.127Z,13.00
2018-11-25T01:04:11.151Z,13.20
2018-11-25T01:05:11.143Z,14.30
2018-11-25T01:06:11.097Z,14.90
2018-11-25T01:07:11.085Z,15.30
2018-11-25T01:08:11.114Z,16.70
2018-11-25T01:09:11.063Z,16.30
2018-11-25T01:10:11.054Z,16.40
2018-11-25T01:11:11.041Z,16.40
2018-11-25T01:12:11.033Z,17.20
2018-11-25T01:13:11.020Z,16.80
2018-11-25T01:14:11.044Z,17.40
2018-11-25T01:15:10.998Z,18.30
2018-11-25T01:16:10.987Z,17.60
2018-11-25T01:17:10.976Z,19.40
2018-11-25T01:18:10.967Z,18.90
2018-11-25T01:19:10.961Z,17.70
2018-11-25T01:20:10.978Z,17.90
2018-11-25T01:21:10.933Z,16.90
2018-11-25T01:22:10.921Z,15.90
2018-11-25T01:23:10.911Z,16.20
2018-11-25T01:24:10.901Z,15.20
2018-11-25T01:25:10.889Z,13.10
2018-11-25T01:26:10.916Z,13.40
2018-11-25T01:27:10.870Z,19.30
2018-11-25T01:28:10.861Z,14.90
2018-11-25T01:29:10.847Z,14.00
2018-11-25T01:30:10.835Z,19.00
2018-11-25T01:31:10.825Z,14.40
2018-11-25T01:32:10.848Z,17.30
2018-11-25T01:33:10.805Z,17.00
2018-11-25T01:34:10.796Z,17.70
2018-11-25T01:35:10.800Z,18.30
2018-11-25T01:36:10.775Z,17.90
2018-11-25T01:37:10.794Z,17.50
2018-11-25T01:38:10.752Z,20.60
2018-11-25T01:39:10.739Z,21.40
2018-11-25T01:40:10.732Z,20.50
2018-11-25T01:41:10.750Z,17.70
2018-11-25T01:42:10.708Z,18.40
2018-11-25T01:43:10.704Z,15.90
2018-11-25T01:44:10.690Z,13.40
2018-11-25T01:45:10.674Z,13.80
2018-11-25T01:46:10.665Z,14.10
2018-11-25T01:47:10.684Z,14.30
2018-11-25T01:48:10.643Z,11.70
2018-11-25T01:49:10.672Z,11.60
2018-11-25T01:50:10.628Z,11.10
2018-11-25T01:51:10.609Z,10.30
2018-11-25T01:52:10.602Z,8.90
2018-11-25T01:53:10.587Z,8.00
2018-11-25T01:54:10.579Z,8.40
2018-11-25T01:55:10.612Z,8.00
2018-11-25T01:56:10.589Z,8.60
2018-11-25T01:57:10.545Z,8.40
2018-11-25T01:58:10.567Z,8.00
2018-11-25T01:59:10.523Z,8.80
2018-11-25T02:00:10.514Z,7.30
2018-11-25T02:01:10.502Z,9.10
2018-11-25T02:02:10.491Z,9.10
2018-11-25T02:03:10.480Z,10.30
2018-11-25T02:04:10.502Z,9.90
2018-11-25T02:05:10.474Z,8.10
2018-11-25T02:06:10.449Z,9.30
2018-11-25T02:07:10.440Z,10.00
2018-11-25T02:08:10.467Z,8.60
2018-11-25T02:09:10.418Z,8.90
2018-11-25T02:10:10.404Z,9.70
2018-11-25T02:11:10.394Z,9.80
2018-11-25T02:12:10.382Z,9.10
2018-11-25T02:13:10.372Z,10.30
2018-11-25T02:14:10.395Z,9.90
2018-11-25T02:15:10.405Z,8.50
2018-11-25T02:16:10.377Z,8.90
2018-11-25T02:17:10.330Z,8.70
2018-11-25T02:18:10.321Z,8.30
2018-11-25T02:19:10.307Z,7.20
2018-11-25T02:20:10.297Z,6.70
2018-11-25T02:21:10.323Z,6.50
2018-11-25T02:22:10.275Z,6.30
2018-11-25T02:23:10.264Z,6.30
2018-11-25T02:24:10.254Z,6.80
2018-11-25T02:25:10.311Z,7.70
2018-11-25T02:26:10.238Z,7.20
2018-11-25T02:27:10.258Z,7.60
2018-11-25T02:28:10.211Z,8.30
2018-11-25T02:29:10.204Z,7.40
2018-11-25T02:30:10.190Z,6.80
2018-11-25T02:31:10.178Z,6.40
2018-11-25T02:32:10.167Z,6.80
2018-11-25T02:33:10.193Z,6.90
2018-11-25T02:34:10.147Z,8.00
2018-11-25T02:35:10.140Z,8.30
2018-11-25T02:36:10.125Z,9.40
2018-11-25T02:37:10.114Z,10.00
2018-11-25T02:38:10.102Z,10.00
2018-11-25T02:39:10.128Z,10.20
2018-11-25T02:40:10.081Z,10.10
2018-11-25T02:41:10.075Z,10.70
2018-11-25T02:42:10.060Z,9.30
2018-11-25T02:43:10.049Z,10.90
2018-11-25T02:44:10.039Z,11.00
2018-11-25T02:45:10.308Z,10.70
2018-11-25T02:46:10.015Z,10.60
2018-11-25T02:47:10.007Z,10.90
2018-11-25T02:48:09.994Z,10.60
2018-11-25T02:49:09.985Z,11.20
2018-11-25T02:50:09.973Z,8.50
2018-11-25T02:51:10.252Z,9.70
2018-11-25T02:52:09.952Z,10.20
2018-11-25T02:53:09.940Z,10.20
2018-11-25T02:54:09.930Z,9.90
2018-11-25T02:55:09.922Z,10.10
2018-11-25T02:56:09.907Z,10.10
2018-11-25T02:57:10.178Z,11.50
2018-11-25T02:58:09.885Z,10.60
2018-11-25T02:59:09.874Z,11.10
2018-11-25T03:00:09.864Z,12.30
2018-11-25T03:01:09.859Z,13.40
2018-11-25T03:02:09.843Z,11.30
2018-11-25T03:03:09.866Z,11.80
2018-11-25T03:04:09.822Z,11.70
2018-11-25T03:05:09.845Z,11.00
2018-11-25T03:06:09.800Z,11.20
2018-11-25T03:07:09.788Z,10.10
2018-11-25T03:08:09.777Z,8.90
2018-11-25T03:09:09.768Z,8.80
2018-11-25T03:10:09.754Z,9.30
2018-11-25T03:11:09.994Z,8.80
2018-11-25T03:12:09.735Z,8.90
2018-11-25T03:13:09.721Z,8.20
2018-11-25T03:14:09.712Z,8.70
2018-11-25T03:15:09.701Z,8.90
2018-11-25T03:16:09.691Z,9.60
2018-11-25T03:17:09.719Z,10.40
2018-11-25T03:18:09.670Z,10.60
2018-11-25T03:19:09.665Z,10.90
2018-11-25T03:20:09.684Z,8.60
2018-11-25T03:21:09.637Z,9.20
2018-11-25T03:22:09.626Z,7.70
2018-11-25T03:23:09.647Z,8.00
2018-11-25T03:24:09.604Z,8.10
2018-11-25T03:25:09.595Z,8.00
2018-11-25T03:26:09.587Z,7.30
2018-11-25T03:27:09.574Z,7.90
2018-11-25T03:28:09.604Z,10.40
2018-11-25T03:29:09.552Z,7.70
2018-11-25T03:30:09.540Z,8.70
2018-11-25T03:31:09.528Z,8.40
2018-11-25T03:32:09.521Z,8.20
2018-11-25T03:33:09.506Z,9.20
2018-11-25T03:34:09.530Z,8.60
2018-11-25T03:35:09.484Z,8.30
2018-11-25T03:36:09.474Z,8.10
2018-11-25T03:37:09.471Z,7.50
2018-11-25T03:38:09.454Z,8.00
2018-11-25T03:39:09.474Z,8.30
2018-11-25T03:40:09.429Z,7.60
2018-11-25T03:41:09.419Z,7.80
2018-11-25T03:42:09.412Z,7.70
2018-11-25T03:43:09.397Z,8.80
2018-11-25T03:44:09.392Z,8.80
2018-11-25T03:45:09.410Z,8.60
2018-11-25T03:46:09.369Z,9.50
2018-11-25T03:47:09.357Z,9.10
2018-11-25T03:48:09.343Z,9.80
2018-11-25T03:49:09.367Z,9.10
2018-11-25T03:50:09.321Z,9.50
2018-11-25T03:51:09.312Z,9.50
2018-11-25T03:52:09.337Z,9.90
2018-11-25T03:53:09.291Z,10.10
2018-11-25T03:54:09.279Z,10.50
2018-11-25T03:55:09.271Z,11.10
2018-11-25T03:56:09.260Z,10.50
2018-11-25T03:57:09.246Z,10.30
2018-11-25T03:58:09.269Z,10.80
2018-11-25T03:59:09.224Z,11.20
2018-11-25T04:00:09.483Z,10.60
2018-11-25T04:01:09.205Z,9.30
2018-11-25T04:02:09.192Z,10.40
2018-11-25T04:03:09.181Z,11.20
2018-11-25T04:04:09.171Z,11.80
2018-11-25T04:05:09.163Z,10.70
2018-11-25T04:06:09.184Z,8.60
2018-11-25T04:07:09.172Z,8.30
2018-11-25T04:08:09.126Z,8.60
2018-11-25T04:09:09.139Z,8.10
2018-11-25T04:10:09.107Z,7.40
2018-11-25T04:11:09.099Z,7.90
2018-11-25T04:12:09.085Z,8.70
2018-11-25T04:13:09.117Z,7.70
2018-11-25T04:14:09.071Z,8.60
2018-11-25T04:15:09.053Z,7.60
2018-11-25T04:16:09.043Z,7.40
2018-11-25T04:17:09.030Z,8.70
2018-11-25T04:18:09.020Z,7.60
2018-11-25T04:19:09.051Z,7.40
2018-11-25T04:20:08.999Z,7.30
2018-11-25T04:21:08.999Z,7.60
2018-11-25T04:22:08.977Z,7.20
2018-11-25T04:23:08.969Z,7.30
2018-11-25T04:24:08.958Z,8.30
2018-11-25T04:25:08.976Z,8.80
2018-11-25T04:26:08.939Z,8.80
2018-11-25T04:27:08.958Z,10.00
2018-11-25T04:28:08.912Z,9.20
2018-11-25T04:29:08.901Z,8.80
2018-11-25T04:30:08.903Z,9.20
2018-11-25T04:31:08.881Z,9.20
2018-11-25T04:32:08.911Z,9.20
2018-11-25T04:33:08.861Z,9.20
2018-11-25T04:34:08.849Z,8.70
2018-11-25T04:35:08.837Z,7.30
2018-11-25T04:36:08.825Z,8.30
2018-11-25T04:37:08.816Z,8.30
2018-11-25T04:38:08.839Z,8.40
2018-11-25T04:39:08.796Z,8.60
2018-11-25T04:40:08.784Z,8.20
2018-11-25T04:41:08.774Z,9.10
2018-11-25T04:42:08.760Z,9.00
2018-11-25T04:43:08.750Z,9.50
2018-11-25T04:44:08.777Z,9.70
2018-11-25T04:45:08.732Z,10.30
2018-11-25T04:46:08.717Z,10.10
2018-11-25T04:47:08.712Z,9.40
2018-11-25T04:48:08.698Z,9.40
2018-11-25T04:49:08.686Z,8.70
2018-11-25T04:50:08.708Z,7.70
2018-11-25T04:51:08.942Z,8.00
2018-11-25T04:52:08.652Z,6.70
2018-11-25T04:53:08.653Z,6.50
2018-11-25T04:54:08.631Z,7.40
2018-11-25T04:55:08.621Z,7.00
2018-11-25T04:56:08.610Z,6.70
2018-11-25T04:57:08.635Z,6.90
2018-11-25T04:58:08.591Z,7.00
2018-11-25T04:59:08.577Z,6.90
2018-11-25T05:00:08.566Z,7.90
2018-11-25T05:01:08.555Z,7.80
2018-11-25T05:02:08.544Z,6.90
2018-11-25T05:03:08.568Z,6.80
2018-11-25T05:04:08.526Z,7.00
2018-11-25T05:05:08.514Z,7.00
2018-11-25T05:06:08.504Z,6.60
2018-11-25T05:07:08.492Z,7.20
2018-11-25T05:08:08.480Z,7.30
2018-11-25T05:09:08.502Z,7.40
2018-11-25T05:10:08.464Z,7.30
2018-11-25T05:11:08.447Z,8.30
2018-11-25T05:12:08.438Z,7.50
2018-11-25T05:13:08.427Z,7.60
2018-11-25T05:14:08.458Z,7.10
2018-11-25T05:15:08.407Z,6.40
2018-11-25T05:16:08.395Z,11.20
2018-11-25T05:17:08.382Z,7.00
2018-11-25T05:18:08.372Z,7.00
2018-11-25T05:19:08.361Z,7.40
2018-11-25T05:20:08.385Z,6.80
2018-11-25T05:21:08.341Z,7.10
2018-11-25T05:22:08.332Z,7.00
2018-11-25T05:23:08.319Z,7.10
2018-11-25T05:24:08.309Z,6.60
2018-11-25T05:25:08.296Z,7.40
2018-11-25T05:26:08.329Z,7.00
2018-11-25T05:27:08.277Z,6.60
2018-11-25T05:28:08.267Z,7.30
2018-11-25T05:29:08.255Z,8.00
2018-11-25T05:30:08.242Z,8.10
2018-11-25T05:31:08.232Z,7.60
2018-11-25T05:32:08.256Z,6.80
2018-11-25T05:33:08.212Z,7.70
2018-11-25T05:34:08.200Z,7.70
2018-11-25T05:35:08.190Z,7.00
2018-11-25T05:36:08.178Z,9.00
2018-11-25T05:37:08.167Z,8.20
2018-11-25T05:38:08.190Z,7.40
2018-11-25T05:39:08.146Z,6.70
2018-11-25T05:40:08.135Z,6.70
2018-11-25T05:41:08.124Z,6.60
2018-11-25T05:42:08.114Z,7.00
2018-11-25T05:43:08.107Z,8.10
2018-11-25T05:44:08.123Z,8.10
2018-11-25T05:45:08.081Z,7.90
2018-11-25T05:46:08.070Z,7.90
2018-11-25T05:47:08.061Z,7.90
2018-11-25T05:48:08.084Z,9.40
2018-11-25T05:49:08.042Z,10.70
2018-11-25T05:50:08.027Z,10.60
2018-11-25T05:51:08.017Z,10.60
2018-11-25T05:52:08.017Z,11.70
2018-11-25T05:53:08.027Z,13.10
2018-11-25T05:54:07.985Z,12.30
2018-11-25T05:55:07.979Z,13.90
2018-11-25T05:56:07.962Z,13.00
2018-11-25T05:57:07.952Z,14.70
2018-11-25T05:58:07.975Z,13.60
2018-11-25T05:59:07.931Z,15.30
2018-11-25T06:00:07.919Z,15.70
2018-11-25T06:01:07.945Z,15.60
2018-11-25T06:02:07.898Z,15.70
2018-11-25T06:03:07.887Z,15.40
2018-11-25T06:04:07.878Z,15.30
2018-11-25T06:05:07.866Z,16.30
2018-11-25T06:06:07.854Z,16.40
2018-11-25T06:07:07.887Z,15.30
2018-11-25T06:08:07.833Z,16.40
2018-11-25T06:09:07.821Z,16.70
2018-11-25T06:10:07.821Z,17.30
2018-11-25T06:11:07.801Z,16.00
2018-11-25T06:12:07.803Z,16.40
2018-11-25T06:13:07.813Z,14.90
2018-11-25T06:14:07.768Z,14.50
2018-11-25T06:15:07.757Z,14.70
2018-11-25T06:16:07.746Z,14.40
2018-11-25T06:17:07.773Z,15.80
2018-11-25T06:18:07.759Z,15.70
2018-11-25T06:19:07.717Z,16.40
2018-11-25T06:20:07.707Z,17.50
2018-11-25T06:21:07.694Z,14.90
2018-11-25T06:22:07.684Z,13.60
2018-11-25T06:23:07.672Z,12.10
2018-11-25T06:24:07.694Z,12.30
2018-11-25T06:25:07.652Z,13.50
2018-11-25T06:26:07.679Z,13.20
2018-11-25T06:27:07.630Z,12.80
2018-11-25T06:28:07.620Z,13.70
2018-11-25T06:29:07.640Z,14.00
2018-11-25T06:30:07.599Z,13.40
2018-11-25T06:31:07.619Z,13.20
2018-11-25T06:32:07.636Z,12.10
2018-11-25T06:33:07.563Z,11.60
2018-11-25T06:34:07.555Z,13.30
2018-11-25T06:35:07.544Z,11.60
2018-11-25T06:36:07.565Z,10.70
2018-11-25T06:37:07.524Z,11.40
2018-11-25T06:38:07.511Z,10.60
2018-11-25T06:39:07.500Z,9.90
2018-11-25T06:40:07.492Z,11.40
2018-11-25T06:41:07.479Z,10.10
2018-11-25T06:42:07.500Z,11.20
2018-11-25T06:43:07.461Z,9.30
2018-11-25T06:44:07.446Z,9.20
2018-11-25T06:45:07.435Z,8.20
2018-11-25T06:46:07.459Z,9.70
2018-11-25T06:47:07.412Z,9.70
2018-11-25T06:48:07.403Z,9.20
2018-11-25T06:49:07.428Z,9.30
2018-11-25T06:50:07.397Z,9.80
2018-11-25T06:51:07.369Z,12.00
2018-11-25T06:52:07.358Z,10.70
2018-11-25T06:53:07.479Z,11.10
2018-11-25T06:54:07.368Z,10.80
2018-11-25T06:55:07.326Z,10.20
2018-11-25T06:56:07.318Z,10.00
2018-11-25T06:57:07.307Z,10.90
2018-11-25T06:58:07.300Z,9.50
2018-11-25T06:59:07.316Z,9.00
2018-11-25T07:00:07.278Z,9.20
2018-11-25T07:01:07.263Z,10.90
2018-11-25T07:02:07.289Z,10.50
2018-11-25T07:03:07.241Z,10.70
2018-11-25T07:04:07.470Z,11.70
2018-11-25T07:05:07.252Z,12.40
2018-11-25T07:06:07.208Z,12.30
2018-11-25T07:07:07.204Z,12.10
2018-11-25T07:08:07.193Z,12.70
2018-11-25T07:09:07.180Z,15.30
2018-11-25T07:10:07.202Z,13.20
2018-11-25T07:11:07.157Z,13.90
2018-11-25T07:12:07.145Z,15.50
2018-11-25T07:13:07.133Z,15.20
2018-11-25T07:14:07.129Z,14.60
2018-11-25T07:15:07.110Z,14.70
2018-11-25T07:16:07.136Z,14.50
2018-11-25T07:17:07.104Z,16.20
2018-11-25T07:18:07.081Z,15.50
2018-11-25T07:19:07.071Z,15.80
2018-11-25T07:20:07.102Z,14.90
2018-11-25T07:21:07.045Z,13.80
2018-11-25T07:22:07.320Z,12.90
2018-11-25T07:23:07.024Z,12.30
2018-11-25T07:24:07.014Z,12.20
2018-11-25T07:25:07.003Z,12.10
2018-11-25T07:26:06.995Z,13.10
2018-11-25T07:27:06.983Z,15.90
2018-11-25T07:28:18.082Z,15.40
2018-11-25T07:29:07.964Z,15.00
2018-11-25T07:30:07.745Z,15.70
2018-11-25T07:31:06.940Z,16.20
2018-11-25T07:32:06.929Z,14.20
2018-11-25T07:33:06.956Z,13.60
2018-11-25T07:34:06.906Z,13.70
2018-11-25T07:35:06.893Z,12.40
2018-11-25T07:36:06.888Z,11.10
2018-11-25T07:37:06.874Z,12.10
2018-11-25T07:38:06.864Z,11.80
2018-11-25T07:39:06.886Z,11.80
2018-11-25T07:40:06.843Z,11.80
2018-11-25T07:41:06.837Z,13.80
2018-11-25T07:42:06.825Z,14.20
2018-11-25T07:43:06.810Z,14.20
2018-11-25T07:44:06.797Z,14.90
2018-11-25T07:45:06.822Z,14.30
2018-11-25T07:46:06.812Z,13.20
2018-11-25T07:47:06.764Z,13.20
2018-11-25T07:48:06.753Z,12.50
2018-11-25T07:49:06.744Z,14.00
2018-11-25T07:50:06.732Z,14.80
2018-11-25T07:51:06.726Z,15.20
2018-11-25T07:52:06.746Z,14.20
2018-11-25T07:53:06.733Z,12.10
2018-11-25T07:54:06.688Z,11.70
2018-11-25T07:55:06.683Z,12.60
2018-11-25T07:56:06.667Z,11.40
2018-11-25T07:57:06.658Z,12.30
2018-11-25T07:58:06.646Z,13.20
2018-11-25T07:59:06.681Z,13.30
2018-11-25T08:00:06.626Z,12.40
2018-11-25T08:01:06.617Z,12.10
2018-11-25T08:02:06.602Z,13.70
2018-11-25T08:03:06.592Z,15.20
2018-11-25T08:04:06.586Z,14.40
2018-11-25T08:05:06.606Z,17.70
2018-11-25T08:06:06.564Z,19.30
2018-11-25T08:07:06.549Z,16.80
2018-11-25T08:08:06.538Z,19.40
2018-11-25T08:09:06.528Z,17.70
2018-11-25T08:10:06.517Z,17.10
2018-11-25T08:11:06.538Z,19.60
2018-11-25T08:12:06.791Z,20.50
2018-11-25T08:13:06.483Z,20.90
2018-11-25T08:14:06.474Z,23.50
2018-11-25T08:15:06.464Z,20.20
2018-11-25T08:16:06.455Z,22.60
2018-11-25T08:17:06.443Z,20.10
2018-11-25T08:18:06.469Z,22.10
2018-11-25T08:19:06.420Z,23.40
2018-11-25T08:20:06.420Z,25.60
2018-11-25T08:21:06.399Z,26.40
2018-11-25T08:22:06.388Z,25.10
2018-11-25T08:23:06.376Z,30.10
2018-11-25T08:24:06.462Z,25.90
2018-11-25T08:25:06.354Z,28.50
2018-11-25T08:26:06.382Z,28.50
2018-11-25T08:27:06.337Z,27.30
2018-11-25T08:28:06.356Z,29.80
2018-11-25T08:29:06.310Z,31.90
2018-11-25T08:30:06.300Z,33.70
2018-11-25T08:31:06.289Z,38.00
2018-11-25T08:32:06.280Z,29.20
2018-11-25T08:33:06.269Z,28.00
2018-11-25T08:34:06.292Z,33.00
2018-11-25T08:35:06.245Z,35.70
2018-11-25T08:36:06.237Z,33.70
2018-11-25T08:37:06.263Z,33.80
2018-11-25T08:38:06.215Z,28.70
2018-11-25T08:39:06.203Z,31.60
2018-11-25T08:40:06.195Z,33.40
2018-11-25T08:41:06.181Z,34.20
2018-11-25T08:42:06.180Z,30.50
2018-11-25T08:43:06.195Z,34.10
2018-11-25T08:44:06.148Z,33.10
2018-11-25T08:45:06.184Z,34.80
2018-11-25T08:46:06.136Z,33.70
2018-11-25T08:47:06.148Z,35.50
2018-11-25T08:48:06.109Z,34.30
2018-11-25T08:49:07.056Z,35.90
2018-11-25T08:50:06.084Z,32.30
2018-11-25T08:51:06.073Z,34.20
2018-11-25T08:52:06.101Z,30.40
2018-11-25T08:53:06.083Z,31.60
2018-11-25T08:54:06.038Z,32.80
2018-11-25T08:55:06.030Z,33.40
2018-11-25T08:56:06.044Z,32.80
2018-11-25T08:57:06.006Z,34.60
2018-11-25T08:58:06.042Z,31.30
2018-11-25T08:59:05.983Z,34.30
2018-11-25T09:00:05.973Z,32.00
2018-11-25T09:01:05.966Z,33.30
2018-11-25T09:02:05.952Z,32.40
2018-11-25T09:03:05.941Z,33.40
2018-11-25T09:04:05.969Z,26.50
2018-11-25T09:05:05.919Z,27.70
2018-11-25T09:06:05.911Z,28.70
2018-11-25T09:07:05.897Z,29.90
2018-11-25T09:08:05.889Z,32.20
2018-11-25T09:09:05.876Z,33.70
2018-11-25T09:10:05.915Z,30.20
2018-11-25T09:11:05.856Z,31.80
2018-11-25T09:12:05.847Z,33.10
2018-11-25T09:13:05.834Z,33.40
2018-11-25T09:14:05.822Z,30.10
2018-11-25T09:15:05.843Z,28.10
2018-11-25T09:16:05.798Z,28.00
2018-11-25T09:17:05.791Z,31.40
2018-11-25T09:18:05.777Z,28.50
2018-11-25T09:19:05.767Z,29.50
2018-11-25T09:20:05.788Z,30.20
2018-11-25T09:21:05.747Z,30.20
2018-11-25T09:22:05.768Z,30.80
2018-11-25T09:23:05.735Z,29.20
2018-11-25T09:24:05.712Z,29.40
2018-11-25T09:25:05.700Z,28.40
2018-11-25T09:26:05.690Z,30.50
2018-11-25T09:27:05.690Z,31.50
2018-11-25T09:28:05.700Z,30.40
2018-11-25T09:29:05.658Z,29.00
2018-11-25T09:30:05.644Z,29.40
2018-11-25T09:31:05.637Z,29.60
2018-11-25T09:32:05.624Z,29.10
2018-11-25T09:33:05.652Z,27.70
2018-11-25T09:34:05.642Z,28.60
2018-11-25T09:35:05.590Z,27.80
2018-11-25T09:36:05.578Z,28.70
2018-11-25T09:37:05.572Z,29.60
2018-11-25T09:38:05.561Z,30.10
2018-11-25T09:39:05.590Z,26.80
2018-11-25T09:40:05.541Z,27.40
2018-11-25T09:41:05.525Z,28.60
2018-11-25T09:42:05.515Z,25.80
2018-11-25T09:43:05.509Z,25.80
2018-11-25T09:44:05.494Z,25.60
2018-11-25T09:45:05.514Z,26.30
2018-11-25T09:46:05.515Z,26.20
2018-11-25T09:47:05.461Z,26.10
2018-11-25T09:48:05.451Z,26.20
2018-11-25T09:49:05.442Z,26.80
2018-11-25T09:50:05.425Z,29.10
2018-11-25T09:51:05.451Z,26.50
2018-11-25T09:52:05.404Z,27.10
2018-11-25T09:53:05.434Z,26.90
2018-11-25T09:54:05.382Z,25.80
2018-11-25T09:55:05.371Z,25.10
2018-11-25T09:56:05.362Z,26.40
2018-11-25T09:57:05.360Z,26.90
2018-11-25T09:58:05.341Z,28.60
2018-11-25T09:59:05.360Z,27.20
2018-11-25T10:00:05.319Z,25.60
2018-11-25T10:01:05.344Z,26.60
2018-11-25T10:02:05.296Z,29.40
2018-11-25T10:03:05.288Z,27.60
2018-11-25T10:04:05.280Z,26.10
2018-11-25T10:05:05.263Z,27.90
2018-11-25T10:06:05.252Z,30.70
2018-11-25T10:07:05.278Z,26.50
2018-11-25T10:08:05.230Z,24.70
2018-11-25T10:09:05.221Z,26.70
2018-11-25T10:10:05.217Z,25.60
2018-11-25T10:11:05.202Z,25.10
2018-11-25T10:12:05.190Z,26.00
2018-11-25T10:13:05.218Z,24.40
2018-11-25T10:14:05.170Z,25.50
2018-11-25T10:15:05.160Z,25.40
2018-11-25T10:16:05.145Z,25.00
2018-11-25T10:17:05.134Z,26.80
2018-11-25T10:18:05.123Z,25.80
2018-11-25T10:19:05.147Z,24.60
2018-11-25T10:20:05.104Z,26.00
2018-11-25T10:21:05.092Z,26.10
2018-11-25T10:22:05.079Z,26.80
2018-11-25T10:23:05.070Z,26.40
2018-11-25T10:24:05.055Z,26.90
2018-11-25T10:25:05.081Z,27.50
2018-11-25T10:26:05.036Z,28.00
2018-11-25T10:27:05.022Z,26.80
2018-11-25T10:28:05.013Z,27.30
2018-11-25T10:29:05.004Z,27.40
2018-11-25T10:30:04.991Z,27.00
2018-11-25T10:31:05.018Z,26.50
2018-11-25T10:32:04.975Z,27.40
2018-11-25T10:33:04.957Z,26.70
2018-11-25T10:34:04.952Z,27.80
2018-11-25T10:35:04.942Z,27.60
2018-11-25T10:36:04.927Z,28.10
2018-11-25T10:37:04.948Z,28.10
2018-11-25T10:38:04.940Z,27.80
2018-11-25T10:39:04.893Z,26.30
2018-11-25T10:40:04.881Z,27.10
2018-11-25T10:41:04.870Z,25.20
2018-11-25T10:42:04.864Z,26.50
2018-11-25T10:43:04.885Z,25.60
2018-11-25T10:44:04.842Z,27.00
2018-11-25T10:45:04.825Z,26.20
2018-11-25T10:46:04.847Z,23.30
2018-11-25T10:47:04.805Z,23.60
2018-11-25T10:48:04.794Z,23.80
2018-11-25T10:49:04.782Z,24.60
2018-11-25T10:50:04.779Z,25.70
2018-11-25T10:51:04.801Z,26.20
2018-11-25T10:52:04.749Z,25.40
2018-11-25T10:53:04.738Z,24.00
2018-11-25T10:54:04.758Z,24.00
2018-11-25T10:55:04.713Z,22.20
2018-11-25T10:56:04.714Z,24.80
2018-11-25T10:57:04.728Z,25.40
2018-11-25T10:58:04.689Z,24.50
2018-11-25T10:59:04.671Z,25.50
2018-11-25T11:00:04.690Z,23.40
2018-11-25T11:01:04.652Z,25.90
2018-11-25T11:02:04.636Z,25.60
2018-11-25T11:03:04.668Z,26.40
2018-11-25T11:04:04.612Z,25.70
2018-11-25T11:05:04.604Z,24.60
2018-11-25T11:06:04.591Z,25.60
2018-11-25T11:07:04.584Z,23.00
2018-11-25T11:08:04.570Z,22.30
2018-11-25T11:09:04.593Z,21.00
2018-11-25T11:10:04.549Z,20.00
2018-11-25T11:11:04.809Z,19.20
2018-11-25T11:12:04.540Z,19.60
2018-11-25T11:13:04.512Z,20.60
2018-11-25T11:14:04.501Z,20.60
2018-11-25T11:15:04.493Z,21.40
2018-11-25T11:16:04.480Z,22.10
2018-11-25T11:17:04.506Z,21.00
2018-11-25T11:18:04.459Z,20.80
2018-11-25T11:19:04.445Z,20.70
2018-11-25T11:20:04.434Z,22.90
2018-11-25T11:21:04.424Z,22.50
2018-11-25T11:22:04.415Z,21.60
2018-11-25T11:23:04.447Z,22.00
2018-11-25T11:24:04.399Z,20.80
2018-11-25T11:25:04.382Z,20.30
2018-11-25T11:26:07.104Z,22.70
2018-11-25T11:27:04.358Z,22.00
2018-11-25T11:28:04.346Z,21.80
2018-11-25T11:29:04.370Z,21.10
2018-11-25T11:30:04.325Z,21.40
2018-11-25T11:31:04.312Z,21.10
2018-11-25T11:32:04.301Z,20.60
2018-11-25T11:33:04.289Z,21.60
2018-11-25T11:34:04.283Z,23.20
2018-11-25T11:35:04.300Z,22.10
2018-11-25T11:36:04.258Z,21.80
2018-11-25T11:37:04.245Z,23.40
2018-11-25T11:38:04.235Z,23.30
2018-11-25T11:39:04.273Z,22.80
2018-11-25T11:40:04.344Z,22.90
2018-11-25T11:41:04.305Z,21.80
2018-11-25T11:42:04.255Z,21.70
2018-11-25T11:43:04.257Z,22.10
2018-11-25T11:44:04.174Z,21.50
2018-11-25T11:45:04.192Z,23.50
2018-11-25T11:46:04.146Z,23.60
2018-11-25T11:47:04.137Z,22.40
2018-11-25T11:48:04.124Z,22.80
2018-11-25T11:49:04.112Z,22.70
2018-11-25T11:50:04.104Z,22.70
2018-11-25T11:51:04.136Z,22.30
2018-11-25T11:52:04.082Z,21.70
2018-11-25T11:53:04.098Z,22.90
2018-11-25T11:54:04.063Z,22.40
2018-11-25T11:55:04.048Z,20.90
2018-11-25T11:56:04.034Z,21.40
2018-11-25T11:57:04.138Z,21.60
2018-11-25T11:58:04.012Z,21.70
2018-11-25T11:59:04.037Z,23.30
2018-11-25T12:00:04.343Z,21.50
2018-11-25T12:01:03.977Z,22.20
2018-11-25T12:02:03.973Z,22.10
2018-11-25T12:03:03.957Z,21.80
2018-11-25T12:04:03.986Z,21.80
2018-11-25T12:05:03.934Z,21.00
2018-11-25T12:06:03.961Z,21.20
2018-11-25T12:07:03.913Z,21.90
2018-11-25T12:08:03.900Z,21.50
2018-11-25T12:09:04.197Z,22.30
2018-11-25T12:10:03.884Z,21.30
2018-11-25T12:11:03.902Z,21.90
2018-11-25T12:12:03.855Z,21.20
2018-11-25T12:13:03.845Z,26.60
2018-11-25T12:14:03.839Z,22.60
2018-11-25T12:15:04.454Z,21.70
2018-11-25T12:16:04.492Z,20.20
2018-11-25T12:17:03.877Z,19.30
2018-11-25T12:18:03.788Z,18.80
2018-11-25T12:19:04.105Z,18.50
2018-11-25T12:20:03.765Z,19.30
2018-11-25T12:21:03.946Z,18.20
2018-11-25T12:22:03.744Z,19.40
2018-11-25T12:23:03.739Z,19.50
2018-11-25T12:24:03.731Z,19.20
2018-11-25T12:25:03.712Z,19.70
2018-11-25T12:26:03.700Z,19.80
2018-11-25T12:27:03.724Z,19.40
2018-11-25T12:28:03.680Z,19.90
2018-11-25T12:29:03.670Z,19.30
2018-11-25T12:30:03.655Z,19.20
2018-11-25T12:31:03.676Z,18.40
2018-11-25T12:32:03.635Z,18.60
2018-11-25T12:33:03.643Z,17.80
2018-11-25T12:34:05.188Z,17.40
2018-11-25T12:35:03.647Z,19.10
2018-11-25T12:36:05.249Z,18.90
2018-11-25T12:37:03.618Z,18.10
2018-11-25T12:38:03.610Z,18.50
2018-11-25T12:39:03.556Z,17.90
2018-11-25T12:40:03.545Z,18.40
2018-11-25T12:41:03.533Z,18.80
2018-11-25T12:42:04.299Z,18.10
2018-11-25T12:43:03.518Z,16.60
2018-11-25T12:44:03.683Z,18.10
2018-11-25T12:45:03.493Z,18.50
2018-11-25T12:46:03.485Z,17.30
2018-11-25T12:47:03.469Z,18.10
2018-11-25T12:48:03.455Z,19.20
2018-11-25T12:49:03.449Z,19.60
2018-11-25T12:50:03.519Z,19.40
2018-11-25T12:51:03.459Z,19.80
2018-11-25T12:52:04.083Z,19.60
2018-11-25T12:53:03.437Z,18.10
2018-11-25T12:54:03.889Z,21.10
2018-11-25T12:55:03.396Z,25.60
2018-11-25T12:56:03.367Z,28.40
2018-11-25T12:57:03.359Z,30.00
2018-11-25T12:58:03.388Z,29.90
2018-11-25T12:59:03.348Z,29.20